sensor_id;sensor_type;location;lat;lon;timestamp;P1;durP1;ratioP1;P2;durP2;ratioP2
20611;SDS011;10465;42.686;23.364;2024-02-28T00:01:37;17.10;;;9.50;;
20611;SDS011;10465;42.686;23.364;2024-02-28T00:04:02;19.48;;;9.20;;
20611;SDS011;10465;42.686;23.364;2024-02-28T00:06:28;16.90;;;9.30;;
20611;SDS011;10465;42.686;23.364;2024-02-28T00:08:54;20.58;;;10.20;;
20611;SDS011;10465;42.686;23.364;2024-02-28T00:11:20;17.70;;;9.18;;
20611;SDS011;10465;42.686;23.364;2024-02-28T00:13:45;19.25;;;9.45;;
20611;SDS011;10465;42.686;23.364;2024-02-28T00:16:11;18.17;;;9.35;;
20611;SDS011;10465;42.686;23.364;2024-02-28T00:18:37;17.92;;;10.77;;
20611;SDS011;10465;42.686;23.364;2024-02-28T00:21:02;20.08;;;10.90;;
20611;SDS011;10465;42.686;23.364;2024-02-28T00:23:29;27.83;;;13.45;;
20611;SDS011;10465;42.686;23.364;2024-02-28T00:25:54;23.63;;;13.25;;
20611;SDS011;10465;42.686;23.364;2024-02-28T00:28:20;26.27;;;13.75;;
20611;SDS011;10465;42.686;23.364;2024-02-28T00:30:46;23.38;;;12.82;;
20611;SDS011;10465;42.686;23.364;2024-02-28T00:33:11;31.50;;;12.80;;
20611;SDS011;10465;42.686;23.364;2024-02-28T00:35:36;24.25;;;12.93;;
20611;SDS011;10465;42.686;23.364;2024-02-28T00:38:02;26.63;;;13.52;;
20611;SDS011;10465;42.686;23.364;2024-02-28T00:40:28;26.27;;;12.07;;
20611;SDS011;10465;42.686;23.364;2024-02-28T00:42:53;26.48;;;13.90;;
20611;SDS011;10465;42.686;23.364;2024-02-28T00:45:19;30.52;;;12.98;;
20611;SDS011;10465;42.686;23.364;2024-02-28T00:47:44;23.58;;;13.02;;
20611;SDS011;10465;42.686;23.364;2024-02-28T00:50:10;22.73;;;12.85;;
20611;SDS011;10465;42.686;23.364;2024-02-28T00:52:36;31.00;;;13.43;;
20611;SDS011;10465;42.686;23.364;2024-02-28T00:55:02;24.70;;;13.25;;
20611;SDS011;10465;42.686;23.364;2024-02-28T00:57:29;31.63;;;13.60;;
20611;SDS011;10465;42.686;23.364;2024-02-28T00:59:55;27.30;;;13.35;;
20611;SDS011;10465;42.686;23.364;2024-02-28T01:02:21;30.55;;;13.55;;
20611;SDS011;10465;42.686;23.364;2024-02-28T01:04:46;26.45;;;14.45;;
20611;SDS011;10465;42.686;23.364;2024-02-28T01:07:12;28.45;;;13.93;;
20611;SDS011;10465;42.686;23.364;2024-02-28T01:09:37;27.60;;;13.23;;
20611;SDS011;10465;42.686;23.364;2024-02-28T01:12:02;23.52;;;13.63;;
20611;SDS011;10465;42.686;23.364;2024-02-28T01:14:28;27.88;;;13.65;;
20611;SDS011;10465;42.686;23.364;2024-02-28T01:16:53;28.88;;;14.00;;
20611;SDS011;10465;42.686;23.364;2024-02-28T01:19:19;22.67;;;12.75;;
20611;SDS011;10465;42.686;23.364;2024-02-28T01:21:44;25.83;;;13.35;;
20611;SDS011;10465;42.686;23.364;2024-02-28T01:24:09;26.00;;;13.93;;
20611;SDS011;10465;42.686;23.364;2024-02-28T01:26:35;25.77;;;12.82;;
20611;SDS011;10465;42.686;23.364;2024-02-28T01:29:00;32.28;;;14.75;;
20611;SDS011;10465;42.686;23.364;2024-02-28T01:31:25;25.90;;;13.13;;
20611;SDS011;10465;42.686;23.364;2024-02-28T01:33:51;29.30;;;13.65;;
20611;SDS011;10465;42.686;23.364;2024-02-28T01:36:17;28.10;;;13.50;;
20611;SDS011;10465;42.686;23.364;2024-02-28T01:38:42;26.10;;;13.93;;
20611;SDS011;10465;42.686;23.364;2024-02-28T01:41:07;29.33;;;14.18;;
20611;SDS011;10465;42.686;23.364;2024-02-28T01:43:33;23.63;;;12.77;;
20611;SDS011;10465;42.686;23.364;2024-02-28T01:46:03;29.23;;;14.77;;
20611;SDS011;10465;42.686;23.364;2024-02-28T01:48:31;25.70;;;13.27;;
20611;SDS011;10465;42.686;23.364;2024-02-28T01:50:57;23.20;;;12.20;;
20611;SDS011;10465;42.686;23.364;2024-02-28T01:53:22;22.70;;;13.23;;
20611;SDS011;10465;42.686;23.364;2024-02-28T01:55:48;27.20;;;13.05;;
20611;SDS011;10465;42.686;23.364;2024-02-28T01:58:13;24.58;;;12.25;;
20611;SDS011;10465;42.686;23.364;2024-02-28T02:00:39;21.80;;;11.68;;
20611;SDS011;10465;42.686;23.364;2024-02-28T02:03:04;25.67;;;12.77;;
20611;SDS011;10465;42.686;23.364;2024-02-28T02:05:30;22.60;;;11.63;;
20611;SDS011;10465;42.686;23.364;2024-02-28T02:07:58;23.15;;;11.05;;
20611;SDS011;10465;42.686;23.364;2024-02-28T02:10:25;25.63;;;11.13;;
20611;SDS011;10465;42.686;23.364;2024-02-28T02:12:51;22.65;;;12.20;;
20611;SDS011;10465;42.686;23.364;2024-02-28T02:15:16;22.83;;;11.32;;
20611;SDS011;10465;42.686;23.364;2024-02-28T02:17:41;22.98;;;11.15;;
20611;SDS011;10465;42.686;23.364;2024-02-28T02:20:08;24.63;;;12.05;;
20611;SDS011;10465;42.686;23.364;2024-02-28T02:22:37;21.48;;;12.27;;
20611;SDS011;10465;42.686;23.364;2024-02-28T02:25:06;24.55;;;12.32;;
20611;SDS011;10465;42.686;23.364;2024-02-28T02:27:32;24.33;;;12.90;;
20611;SDS011;10465;42.686;23.364;2024-02-28T02:29:57;24.45;;;12.55;;
20611;SDS011;10465;42.686;23.364;2024-02-28T02:32:23;23.08;;;13.38;;
20611;SDS011;10465;42.686;23.364;2024-02-28T02:34:48;26.02;;;12.32;;
20611;SDS011;10465;42.686;23.364;2024-02-28T02:37:13;22.88;;;12.07;;
20611;SDS011;10465;42.686;23.364;2024-02-28T02:39:39;23.92;;;12.45;;
20611;SDS011;10465;42.686;23.364;2024-02-28T02:42:04;24.30;;;12.68;;
20611;SDS011;10465;42.686;23.364;2024-02-28T02:44:29;28.13;;;12.73;;
20611;SDS011;10465;42.686;23.364;2024-02-28T02:46:55;21.27;;;11.27;;
20611;SDS011;10465;42.686;23.364;2024-02-28T02:49:20;22.10;;;11.35;;
20611;SDS011;10465;42.686;23.364;2024-02-28T02:51:46;23.45;;;12.20;;
20611;SDS011;10465;42.686;23.364;2024-02-28T02:54:11;24.50;;;12.57;;
20611;SDS011;10465;42.686;23.364;2024-02-28T02:56:36;23.95;;;11.82;;
20611;SDS011;10465;42.686;23.364;2024-02-28T02:59:02;19.48;;;11.55;;
20611;SDS011;10465;42.686;23.364;2024-02-28T03:01:27;22.92;;;11.88;;
20611;SDS011;10465;42.686;23.364;2024-02-28T03:03:53;22.95;;;12.50;;
20611;SDS011;10465;42.686;23.364;2024-02-28T03:06:19;25.42;;;12.52;;
20611;SDS011;10465;42.686;23.364;2024-02-28T03:08:44;26.52;;;12.50;;
20611;SDS011;10465;42.686;23.364;2024-02-28T03:11:10;21.63;;;11.90;;
20611;SDS011;10465;42.686;23.364;2024-02-28T03:13:36;21.92;;;11.40;;
20611;SDS011;10465;42.686;23.364;2024-02-28T03:16:03;25.73;;;12.77;;
20611;SDS011;10465;42.686;23.364;2024-02-28T03:18:29;23.13;;;11.60;;
20611;SDS011;10465;42.686;23.364;2024-02-28T03:20:54;27.38;;;12.63;;
20611;SDS011;10465;42.686;23.364;2024-02-28T03:23:20;23.73;;;12.43;;
20611;SDS011;10465;42.686;23.364;2024-02-28T03:25:45;22.42;;;12.13;;
20611;SDS011;10465;42.686;23.364;2024-02-28T03:28:10;26.42;;;11.40;;
20611;SDS011;10465;42.686;23.364;2024-02-28T03:30:36;26.42;;;11.98;;
20611;SDS011;10465;42.686;23.364;2024-02-28T03:33:01;20.70;;;10.90;;
20611;SDS011;10465;42.686;23.364;2024-02-28T03:35:26;24.58;;;11.73;;
20611;SDS011;10465;42.686;23.364;2024-02-28T03:37:52;21.15;;;11.55;;
20611;SDS011;10465;42.686;23.364;2024-02-28T03:40:17;24.75;;;11.30;;
20611;SDS011;10465;42.686;23.364;2024-02-28T03:42:43;21.40;;;12.27;;
20611;SDS011;10465;42.686;23.364;2024-02-28T03:45:08;28.52;;;12.05;;
20611;SDS011;10465;42.686;23.364;2024-02-28T03:47:33;23.45;;;11.95;;
20611;SDS011;10465;42.686;23.364;2024-02-28T03:49:59;22.55;;;12.07;;
20611;SDS011;10465;42.686;23.364;2024-02-28T03:52:24;22.50;;;12.90;;
20611;SDS011;10465;42.686;23.364;2024-02-28T03:54:50;25.05;;;12.25;;
20611;SDS011;10465;42.686;23.364;2024-02-28T03:57:15;24.50;;;11.18;;
20611;SDS011;10465;42.686;23.364;2024-02-28T03:59:41;21.05;;;11.95;;
20611;SDS011;10465;42.686;23.364;2024-02-28T04:02:06;27.17;;;12.30;;
20611;SDS011;10465;42.686;23.364;2024-02-28T04:04:32;21.52;;;10.52;;
20611;SDS011;10465;42.686;23.364;2024-02-28T04:06:57;24.90;;;10.88;;
20611;SDS011;10465;42.686;23.364;2024-02-28T04:09:22;19.50;;;11.75;;
20611;SDS011;10465;42.686;23.364;2024-02-28T04:11:48;20.88;;;11.88;;
20611;SDS011;10465;42.686;23.364;2024-02-28T04:14:13;22.42;;;12.00;;
20611;SDS011;10465;42.686;23.364;2024-02-28T04:16:42;28.15;;;13.35;;
20611;SDS011;10465;42.686;23.364;2024-02-28T04:19:12;26.35;;;12.05;;
20611;SDS011;10465;42.686;23.364;2024-02-28T04:21:37;23.33;;;12.02;;
20611;SDS011;10465;42.686;23.364;2024-02-28T04:24:03;21.85;;;12.00;;
20611;SDS011;10465;42.686;23.364;2024-02-28T04:26:32;24.42;;;12.80;;
20611;SDS011;10465;42.686;23.364;2024-02-28T04:28:57;26.80;;;13.27;;
20611;SDS011;10465;42.686;23.364;2024-02-28T04:31:24;24.10;;;12.80;;
20611;SDS011;10465;42.686;23.364;2024-02-28T04:33:49;27.40;;;13.70;;
20611;SDS011;10465;42.686;23.364;2024-02-28T04:36:17;23.40;;;12.90;;
20611;SDS011;10465;42.686;23.364;2024-02-28T04:38:42;23.88;;;13.73;;
20611;SDS011;10465;42.686;23.364;2024-02-28T04:41:07;25.92;;;12.27;;
20611;SDS011;10465;42.686;23.364;2024-02-28T04:43:33;25.75;;;12.57;;
20611;SDS011;10465;42.686;23.364;2024-02-28T04:45:58;24.48;;;13.13;;
20611;SDS011;10465;42.686;23.364;2024-02-28T04:48:24;26.02;;;13.15;;
20611;SDS011;10465;42.686;23.364;2024-02-28T04:50:49;28.50;;;13.05;;
20611;SDS011;10465;42.686;23.364;2024-02-28T04:53:14;28.42;;;13.05;;
20611;SDS011;10465;42.686;23.364;2024-02-28T04:55:40;25.85;;;12.93;;
20611;SDS011;10465;42.686;23.364;2024-02-28T04:58:05;26.15;;;12.70;;
20611;SDS011;10465;42.686;23.364;2024-02-28T05:00:31;21.63;;;12.40;;
20611;SDS011;10465;42.686;23.364;2024-02-28T05:02:56;25.13;;;11.98;;
20611;SDS011;10465;42.686;23.364;2024-02-28T05:05:21;23.80;;;12.18;;
20611;SDS011;10465;42.686;23.364;2024-02-28T05:07:47;28.13;;;11.65;;
20611;SDS011;10465;42.686;23.364;2024-02-28T05:10:12;23.90;;;11.68;;
20611;SDS011;10465;42.686;23.364;2024-02-28T05:12:38;24.38;;;12.73;;
20611;SDS011;10465;42.686;23.364;2024-02-28T05:15:03;25.52;;;11.32;;
20611;SDS011;10465;42.686;23.364;2024-02-28T05:17:31;27.05;;;12.13;;
20611;SDS011;10465;42.686;23.364;2024-02-28T05:19:56;25.25;;;13.00;;
20611;SDS011;10465;42.686;23.364;2024-02-28T05:22:22;29.45;;;12.10;;
20611;SDS011;10465;42.686;23.364;2024-02-28T05:24:47;22.10;;;11.82;;
20611;SDS011;10465;42.686;23.364;2024-02-28T05:27:13;27.98;;;13.30;;
20611;SDS011;10465;42.686;23.364;2024-02-28T05:29:38;27.08;;;12.63;;
20611;SDS011;10465;42.686;23.364;2024-02-28T05:32:05;24.65;;;12.75;;
20611;SDS011;10465;42.686;23.364;2024-02-28T05:34:31;26.30;;;12.60;;
20611;SDS011;10465;42.686;23.364;2024-02-28T05:36:56;26.52;;;12.65;;
20611;SDS011;10465;42.686;23.364;2024-02-28T05:39:21;26.55;;;12.30;;
20611;SDS011;10465;42.686;23.364;2024-02-28T05:41:47;26.02;;;12.85;;
20611;SDS011;10465;42.686;23.364;2024-02-28T05:44:12;24.20;;;12.35;;
20611;SDS011;10465;42.686;23.364;2024-02-28T05:46:39;29.27;;;12.80;;
20611;SDS011;10465;42.686;23.364;2024-02-28T05:49:05;29.65;;;13.73;;
20611;SDS011;10465;42.686;23.364;2024-02-28T05:51:30;26.10;;;12.60;;
20611;SDS011;10465;42.686;23.364;2024-02-28T05:53:55;30.10;;;14.07;;
20611;SDS011;10465;42.686;23.364;2024-02-28T05:56:21;25.98;;;13.60;;
20611;SDS011;10465;42.686;23.364;2024-02-28T05:58:47;30.02;;;15.23;;
20611;SDS011;10465;42.686;23.364;2024-02-28T06:01:16;31.15;;;16.85;;
20611;SDS011;10465;42.686;23.364;2024-02-28T06:03:42;32.20;;;16.90;;
20611;SDS011;10465;42.686;23.364;2024-02-28T06:06:09;32.90;;;16.55;;
20611;SDS011;10465;42.686;23.364;2024-02-28T06:08:37;28.35;;;14.98;;
20611;SDS011;10465;42.686;23.364;2024-02-28T06:11:03;34.05;;;17.13;;
20611;SDS011;10465;42.686;23.364;2024-02-28T06:13:30;33.95;;;18.08;;
20611;SDS011;10465;42.686;23.364;2024-02-28T06:15:55;27.80;;;16.05;;
20611;SDS011;10465;42.686;23.364;2024-02-28T06:18:21;32.15;;;16.38;;
20611;SDS011;10465;42.686;23.364;2024-02-28T06:20:48;31.02;;;14.93;;
20611;SDS011;10465;42.686;23.364;2024-02-28T06:23:13;27.55;;;15.48;;
20611;SDS011;10465;42.686;23.364;2024-02-28T06:25:39;27.85;;;13.88;;
20611;SDS011;10465;42.686;23.364;2024-02-28T06:28:04;25.58;;;12.90;;
20611;SDS011;10465;42.686;23.364;2024-02-28T06:30:31;28.63;;;14.82;;
20611;SDS011;10465;42.686;23.364;2024-02-28T06:33:00;25.08;;;14.75;;
20611;SDS011;10465;42.686;23.364;2024-02-28T06:35:26;28.23;;;14.93;;
20611;SDS011;10465;42.686;23.364;2024-02-28T06:37:52;29.55;;;14.70;;
20611;SDS011;10465;42.686;23.364;2024-02-28T06:40:17;27.17;;;13.25;;
20611;SDS011;10465;42.686;23.364;2024-02-28T06:42:43;25.83;;;13.63;;
20611;SDS011;10465;42.686;23.364;2024-02-28T06:45:09;25.83;;;13.65;;
20611;SDS011;10465;42.686;23.364;2024-02-28T06:47:34;29.63;;;13.90;;
20611;SDS011;10465;42.686;23.364;2024-02-28T06:50:01;25.90;;;14.45;;
20611;SDS011;10465;42.686;23.364;2024-02-28T06:52:28;33.17;;;14.57;;
20611;SDS011;10465;42.686;23.364;2024-02-28T06:54:53;32.08;;;14.95;;
20611;SDS011;10465;42.686;23.364;2024-02-28T06:57:18;24.48;;;13.50;;
20611;SDS011;10465;42.686;23.364;2024-02-28T06:59:44;24.58;;;12.65;;
20611;SDS011;10465;42.686;23.364;2024-02-28T07:02:10;25.55;;;12.95;;
20611;SDS011;10465;42.686;23.364;2024-02-28T07:04:35;25.42;;;12.60;;
20611;SDS011;10465;42.686;23.364;2024-02-28T07:07:01;27.42;;;13.05;;
20611;SDS011;10465;42.686;23.364;2024-02-28T07:09:27;29.52;;;13.13;;
20611;SDS011;10465;42.686;23.364;2024-02-28T07:11:56;24.38;;;13.38;;
20611;SDS011;10465;42.686;23.364;2024-02-28T07:14:21;29.75;;;14.57;;
20611;SDS011;10465;42.686;23.364;2024-02-28T07:16:46;27.80;;;13.57;;
20611;SDS011;10465;42.686;23.364;2024-02-28T07:19:12;25.98;;;12.75;;
20611;SDS011;10465;42.686;23.364;2024-02-28T07:21:37;31.55;;;13.43;;
20611;SDS011;10465;42.686;23.364;2024-02-28T07:24:03;28.35;;;13.98;;
20611;SDS011;10465;42.686;23.364;2024-02-28T07:26:31;25.27;;;13.27;;
20611;SDS011;10465;42.686;23.364;2024-02-28T07:28:57;27.77;;;12.70;;
20611;SDS011;10465;42.686;23.364;2024-02-28T07:31:22;29.40;;;14.23;;
20611;SDS011;10465;42.686;23.364;2024-02-28T07:33:48;23.63;;;12.55;;
20611;SDS011;10465;42.686;23.364;2024-02-28T07:36:13;25.63;;;13.15;;
20611;SDS011;10465;42.686;23.364;2024-02-28T07:38:41;21.75;;;13.20;;
20611;SDS011;10465;42.686;23.364;2024-02-28T07:41:07;27.75;;;13.80;;
20611;SDS011;10465;42.686;23.364;2024-02-28T07:43:33;27.70;;;14.55;;
20611;SDS011;10465;42.686;23.364;2024-02-28T07:46:11;25.58;;;13.93;;
20611;SDS011;10465;42.686;23.364;2024-02-28T07:48:39;23.33;;;12.68;;
20611;SDS011;10465;42.686;23.364;2024-02-28T07:51:05;24.85;;;13.48;;
20611;SDS011;10465;42.686;23.364;2024-02-28T07:53:34;26.88;;;12.55;;
20611;SDS011;10465;42.686;23.364;2024-02-28T07:56:00;27.33;;;13.80;;
20611;SDS011;10465;42.686;23.364;2024-02-28T07:58:25;30.52;;;14.48;;
20611;SDS011;10465;42.686;23.364;2024-02-28T08:00:51;30.67;;;14.63;;
20611;SDS011;10465;42.686;23.364;2024-02-28T08:03:19;25.83;;;14.10;;
20611;SDS011;10465;42.686;23.364;2024-02-28T08:05:44;25.88;;;13.85;;
20611;SDS011;10465;42.686;23.364;2024-02-28T08:08:11;29.10;;;14.65;;
20611;SDS011;10465;42.686;23.364;2024-02-28T08:10:39;26.85;;;14.68;;
20611;SDS011;10465;42.686;23.364;2024-02-28T08:13:05;36.55;;;14.27;;
20611;SDS011;10465;42.686;23.364;2024-02-28T08:15:30;32.15;;;14.75;;
20611;SDS011;10465;42.686;23.364;2024-02-28T08:17:56;25.30;;;14.02;;
20611;SDS011;10465;42.686;23.364;2024-02-28T08:20:23;29.25;;;14.18;;
20611;SDS011;10465;42.686;23.364;2024-02-28T08:22:48;25.65;;;13.10;;
20611;SDS011;10465;42.686;23.364;2024-02-28T08:25:13;27.10;;;12.40;;
20611;SDS011;10465;42.686;23.364;2024-02-28T08:27:39;23.33;;;12.75;;
20611;SDS011;10465;42.686;23.364;2024-02-28T08:30:05;26.05;;;14.10;;
20611;SDS011;10465;42.686;23.364;2024-02-28T08:32:31;25.70;;;13.88;;
20611;SDS011;10465;42.686;23.364;2024-02-28T08:34:57;24.85;;;14.05;;
20611;SDS011;10465;42.686;23.364;2024-02-28T08:37:23;23.88;;;12.38;;
20611;SDS011;10465;42.686;23.364;2024-02-28T08:39:48;24.73;;;13.15;;
20611;SDS011;10465;42.686;23.364;2024-02-28T08:42:14;26.55;;;12.88;;
20611;SDS011;10465;42.686;23.364;2024-02-28T08:44:39;20.85;;;12.25;;
20611;SDS011;10465;42.686;23.364;2024-02-28T08:47:05;24.92;;;12.30;;
20611;SDS011;10465;42.686;23.364;2024-02-28T08:49:32;30.10;;;12.23;;
20611;SDS011;10465;42.686;23.364;2024-02-28T08:51:58;23.65;;;11.65;;
20611;SDS011;10465;42.686;23.364;2024-02-28T08:54:23;25.58;;;13.18;;
20611;SDS011;10465;42.686;23.364;2024-02-28T08:56:50;21.73;;;11.52;;
20611;SDS011;10465;42.686;23.364;2024-02-28T08:59:16;21.95;;;11.38;;
20611;SDS011;10465;42.686;23.364;2024-02-28T09:01:41;23.42;;;12.02;;
20611;SDS011;10465;42.686;23.364;2024-02-28T09:04:07;23.23;;;11.88;;
20611;SDS011;10465;42.686;23.364;2024-02-28T09:06:32;21.77;;;11.70;;
20611;SDS011;10465;42.686;23.364;2024-02-28T09:08:58;24.35;;;11.65;;
20611;SDS011;10465;42.686;23.364;2024-02-28T09:11:23;20.10;;;10.70;;
20611;SDS011;10465;42.686;23.364;2024-02-28T09:13:50;19.23;;;10.20;;
20611;SDS011;10465;42.686;23.364;2024-02-28T09:16:15;20.52;;;10.38;;
20611;SDS011;10465;42.686;23.364;2024-02-28T09:18:41;20.73;;;10.73;;
20611;SDS011;10465;42.686;23.364;2024-02-28T09:21:07;17.63;;;10.18;;
20611;SDS011;10465;42.686;23.364;2024-02-28T09:23:33;17.77;;;9.73;;
20611;SDS011;10465;42.686;23.364;2024-02-28T09:25:58;18.05;;;9.90;;
20611;SDS011;10465;42.686;23.364;2024-02-28T09:28:24;17.70;;;8.85;;
20611;SDS011;10465;42.686;23.364;2024-02-28T09:30:49;16.65;;;9.65;;
20611;SDS011;10465;42.686;23.364;2024-02-28T09:33:16;15.77;;;9.23;;
20611;SDS011;10465;42.686;23.364;2024-02-28T09:35:44;19.48;;;9.82;;
20611;SDS011;10465;42.686;23.364;2024-02-28T09:38:10;18.23;;;9.25;;
20611;SDS011;10465;42.686;23.364;2024-02-28T09:40:35;15.48;;;9.23;;
20611;SDS011;10465;42.686;23.364;2024-02-28T09:43:01;14.32;;;8.80;;
20611;SDS011;10465;42.686;23.364;2024-02-28T09:45:31;18.10;;;9.75;;
20611;SDS011;10465;42.686;23.364;2024-02-28T09:48:00;21.85;;;10.25;;
20611;SDS011;10465;42.686;23.364;2024-02-28T09:50:26;16.13;;;9.27;;
20611;SDS011;10465;42.686;23.364;2024-02-28T09:52:52;20.25;;;9.73;;
20611;SDS011;10465;42.686;23.364;2024-02-28T09:55:18;21.45;;;10.10;;
20611;SDS011;10465;42.686;23.364;2024-02-28T09:57:45;16.52;;;9.00;;
20611;SDS011;10465;42.686;23.364;2024-02-28T10:00:13;17.23;;;9.45;;
20611;SDS011;10465;42.686;23.364;2024-02-28T10:02:41;21.60;;;8.60;;
20611;SDS011;10465;42.686;23.364;2024-02-28T10:05:10;21.10;;;9.15;;
20611;SDS011;10465;42.686;23.364;2024-02-28T10:07:35;15.48;;;8.35;;
20611;SDS011;10465;42.686;23.364;2024-02-28T10:10:01;16.17;;;7.95;;
20611;SDS011;10465;42.686;23.364;2024-02-28T10:12:26;14.45;;;7.43;;
20611;SDS011;10465;42.686;23.364;2024-02-28T10:14:51;13.40;;;7.38;;
20611;SDS011;10465;42.686;23.364;2024-02-28T10:17:17;15.32;;;6.75;;
20611;SDS011;10465;42.686;23.364;2024-02-28T10:19:43;12.77;;;7.35;;
20611;SDS011;10465;42.686;23.364;2024-02-28T10:22:08;14.48;;;8.50;;
20611;SDS011;10465;42.686;23.364;2024-02-28T10:24:34;15.73;;;8.13;;
20611;SDS011;10465;42.686;23.364;2024-02-28T10:27:00;21.95;;;9.18;;
20611;SDS011;10465;42.686;23.364;2024-02-28T10:29:26;18.20;;;8.55;;
20611;SDS011;10465;42.686;23.364;2024-02-28T10:31:56;14.88;;;8.35;;
20611;SDS011;10465;42.686;23.364;2024-02-28T10:34:21;17.65;;;8.85;;
20611;SDS011;10465;42.686;23.364;2024-02-28T10:36:47;20.35;;;9.40;;
20611;SDS011;10465;42.686;23.364;2024-02-28T10:39:12;23.67;;;9.88;;
20611;SDS011;10465;42.686;23.364;2024-02-28T10:41:39;17.88;;;9.50;;
20611;SDS011;10465;42.686;23.364;2024-02-28T10:44:04;16.70;;;8.60;;
20611;SDS011;10465;42.686;23.364;2024-02-28T10:46:33;19.48;;;9.57;;
20611;SDS011;10465;42.686;23.364;2024-02-28T10:48:58;17.45;;;9.23;;
20611;SDS011;10465;42.686;23.364;2024-02-28T10:51:24;16.75;;;8.88;;
20611;SDS011;10465;42.686;23.364;2024-02-28T10:56:33;15.50;;;9.02;;
20611;SDS011;10465;42.686;23.364;2024-02-28T10:58:59;13.10;;;7.63;;
20611;SDS011;10465;42.686;23.364;2024-02-28T11:01:26;14.60;;;8.00;;
20611;SDS011;10465;42.686;23.364;2024-02-28T11:03:52;19.45;;;9.07;;
20611;SDS011;10465;42.686;23.364;2024-02-28T11:06:19;14.65;;;8.68;;
20611;SDS011;10465;42.686;23.364;2024-02-28T11:08:46;15.52;;;9.35;;
20611;SDS011;10465;42.686;23.364;2024-02-28T11:11:19;13.13;;;7.65;;
20611;SDS011;10465;42.686;23.364;2024-02-28T11:13:52;15.55;;;7.93;;
20611;SDS011;10465;42.686;23.364;2024-02-28T11:16:25;16.17;;;7.32;;
20611;SDS011;10465;42.686;23.364;2024-02-28T11:18:55;18.70;;;9.10;;
20611;SDS011;10465;42.686;23.364;2024-02-28T11:21:24;16.77;;;8.10;;
20611;SDS011;10465;42.686;23.364;2024-02-28T11:24:00;13.40;;;8.40;;
20611;SDS011;10465;42.686;23.364;2024-02-28T11:26:26;17.20;;;8.10;;
20611;SDS011;10465;42.686;23.364;2024-02-28T11:28:53;13.35;;;6.63;;
20611;SDS011;10465;42.686;23.364;2024-02-28T11:31:20;12.07;;;6.68;;
20611;SDS011;10465;42.686;23.364;2024-02-28T11:33:45;13.95;;;8.13;;
20611;SDS011;10465;42.686;23.364;2024-02-28T11:36:11;12.50;;;6.95;;
20611;SDS011;10465;42.686;23.364;2024-02-28T11:38:38;11.70;;;6.88;;
20611;SDS011;10465;42.686;23.364;2024-02-28T11:41:04;12.38;;;7.07;;
20611;SDS011;10465;42.686;23.364;2024-02-28T11:43:30;11.70;;;6.55;;
20611;SDS011;10465;42.686;23.364;2024-02-28T11:45:57;11.13;;;6.57;;
20611;SDS011;10465;42.686;23.364;2024-02-28T11:48:25;11.25;;;5.63;;
20611;SDS011;10465;42.686;23.364;2024-02-28T11:50:54;11.27;;;6.13;;
20611;SDS011;10465;42.686;23.364;2024-02-28T11:53:19;11.07;;;6.53;;
20611;SDS011;10465;42.686;23.364;2024-02-28T11:55:47;13.98;;;6.45;;
20611;SDS011;10465;42.686;23.364;2024-02-28T11:58:13;10.18;;;6.43;;
20611;SDS011;10465;42.686;23.364;2024-02-28T12:00:49;12.60;;;6.03;;
20611;SDS011;10465;42.686;23.364;2024-02-28T12:03:24;10.05;;;5.78;;
20611;SDS011;10465;42.686;23.364;2024-02-28T12:05:54;11.55;;;6.68;;
20611;SDS011;10465;42.686;23.364;2024-02-28T12:08:20;15.23;;;6.20;;
20611;SDS011;10465;42.686;23.364;2024-02-28T12:10:46;12.68;;;6.75;;
20611;SDS011;10465;42.686;23.364;2024-02-28T12:13:16;12.52;;;6.97;;
20611;SDS011;10465;42.686;23.364;2024-02-28T12:15:42;12.55;;;6.53;;
20611;SDS011;10465;42.686;23.364;2024-02-28T12:18:08;12.95;;;6.45;;
20611;SDS011;10465;42.686;23.364;2024-02-28T12:20:35;13.95;;;6.70;;
20611;SDS011;10465;42.686;23.364;2024-02-28T12:23:02;13.40;;;6.40;;
20611;SDS011;10465;42.686;23.364;2024-02-28T12:25:28;12.02;;;5.97;;
20611;SDS011;10465;42.686;23.364;2024-02-28T12:27:54;12.43;;;6.30;;
20611;SDS011;10465;42.686;23.364;2024-02-28T12:30:19;9.18;;;5.95;;
20611;SDS011;10465;42.686;23.364;2024-02-28T12:32:45;9.90;;;5.93;;
20611;SDS011;10465;42.686;23.364;2024-02-28T12:35:11;14.38;;;5.07;;
20611;SDS011;10465;42.686;23.364;2024-02-28T12:37:36;10.18;;;5.70;;
20611;SDS011;10465;42.686;23.364;2024-02-28T12:40:02;9.80;;;6.35;;
20611;SDS011;10465;42.686;23.364;2024-02-28T12:42:29;10.18;;;4.90;;
20611;SDS011;10465;42.686;23.364;2024-02-28T12:44:55;10.93;;;5.55;;
20611;SDS011;10465;42.686;23.364;2024-02-28T12:47:21;8.85;;;5.43;;
20611;SDS011;10465;42.686;23.364;2024-02-28T12:49:46;8.75;;;5.43;;
20611;SDS011;10465;42.686;23.364;2024-02-28T12:52:11;10.75;;;4.90;;
20611;SDS011;10465;42.686;23.364;2024-02-28T12:54:37;8.15;;;5.03;;
20611;SDS011;10465;42.686;23.364;2024-02-28T12:57:02;11.15;;;4.88;;
20611;SDS011;10465;42.686;23.364;2024-02-28T12:59:30;9.15;;;5.03;;
20611;SDS011;10465;42.686;23.364;2024-02-28T13:01:55;8.80;;;4.90;;
20611;SDS011;10465;42.686;23.364;2024-02-28T13:04:21;7.47;;;4.68;;
20611;SDS011;10465;42.686;23.364;2024-02-28T13:06:46;10.73;;;4.45;;
20611;SDS011;10465;42.686;23.364;2024-02-28T13:09:12;7.80;;;5.47;;
20611;SDS011;10465;42.686;23.364;2024-02-28T13:11:38;10.95;;;4.68;;
20611;SDS011;10465;42.686;23.364;2024-02-28T13:14:04;9.05;;;4.53;;
20611;SDS011;10465;42.686;23.364;2024-02-28T13:16:30;5.72;;;4.10;;
20611;SDS011;10465;42.686;23.364;2024-02-28T13:18:55;5.53;;;3.63;;
20611;SDS011;10465;42.686;23.364;2024-02-28T13:21:21;6.25;;;4.43;;
20611;SDS011;10465;42.686;23.364;2024-02-28T13:23:47;4.18;;;3.42;;
20611;SDS011;10465;42.686;23.364;2024-02-28T13:26:12;6.95;;;4.20;;
20611;SDS011;10465;42.686;23.364;2024-02-28T13:28:46;7.18;;;3.80;;
20611;SDS011;10465;42.686;23.364;2024-02-28T13:31:13;9.05;;;4.60;;
20611;SDS011;10465;42.686;23.364;2024-02-28T13:33:38;8.15;;;4.85;;
20611;SDS011;10465;42.686;23.364;2024-02-28T13:36:06;9.02;;;4.65;;
20611;SDS011;10465;42.686;23.364;2024-02-28T13:38:32;7.15;;;4.40;;
20611;SDS011;10465;42.686;23.364;2024-02-28T13:40:57;7.13;;;4.38;;
20611;SDS011;10465;42.686;23.364;2024-02-28T13:43:23;7.85;;;4.15;;
20611;SDS011;10465;42.686;23.364;2024-02-28T13:45:49;11.63;;;4.90;;
20611;SDS011;10465;42.686;23.364;2024-02-28T13:48:19;8.10;;;4.53;;
20611;SDS011;10465;42.686;23.364;2024-02-28T13:50:47;7.95;;;4.45;;
20611;SDS011;10465;42.686;23.364;2024-02-28T13:53:16;6.63;;;4.13;;
20611;SDS011;10465;42.686;23.364;2024-02-28T13:55:42;6.78;;;3.70;;
20611;SDS011;10465;42.686;23.364;2024-02-28T13:58:08;9.43;;;4.18;;
20611;SDS011;10465;42.686;23.364;2024-02-28T14:00:36;6.78;;;3.90;;
20611;SDS011;10465;42.686;23.364;2024-02-28T14:03:01;10.57;;;4.28;;
20611;SDS011;10465;42.686;23.364;2024-02-28T14:05:28;5.35;;;3.78;;
20611;SDS011;10465;42.686;23.364;2024-02-28T14:07:53;8.68;;;4.22;;
20611;SDS011;10465;42.686;23.364;2024-02-28T14:10:19;9.20;;;4.00;;